createdAt,value
2022-08-12T00:00:06.192Z,99794.13
2022-08-12T00:02:03.633Z,99789.75
2022-08-12T00:03:13.244Z,99797.66
2022-08-12T00:04:42.384Z,99782.25
2022-08-12T00:06:06.560Z,99797.81
2022-08-12T00:07:31.915Z,99795.13
2022-08-12T00:08:57.767Z,99800.59
2022-08-12T00:10:21.193Z,99802.31
2022-08-12T00:11:47.860Z,99801.59
2022-08-12T00:13:14.513Z,99796.22
2022-08-12T00:14:43.544Z,99800.06
2022-08-12T00:16:06.792Z,99799.38
2022-08-12T00:17:29.865Z,99797.53
2022-08-12T00:18:53.249Z,99799.63
2022-08-12T00:20:16.405Z,99799.78
2022-08-12T00:21:40.991Z,99809.25
2022-08-12T00:23:04.100Z,99791.44
2022-08-12T00:24:29.483Z,99789.59
2022-08-12T00:26:20.834Z,99788.91
2022-08-12T00:27:48.002Z,99791.00
2022-08-12T00:29:14.307Z,99795.13
2022-08-12T00:30:37.319Z,99787.63
2022-08-12T00:32:01.520Z,99797.81
2022-08-12T00:33:25.636Z,99797.06
2022-08-12T00:34:57.299Z,99795.25
2022-08-12T00:36:35.258Z,99798.66
2022-08-12T00:37:59.366Z,99785.06
2022-08-12T00:39:22.851Z,99785.63
2022-08-12T00:40:47.724Z,99798.34
2022-08-12T00:42:12.331Z,99788.47
2022-08-12T00:43:17.995Z,99795.53
2022-08-12T00:44:26.247Z,99794.97
2022-08-12T00:45:52.406Z,99783.38
2022-08-12T00:47:02.875Z,99799.22
2022-08-12T00:48:07.266Z,99805.56
2022-08-12T00:49:11.627Z,99780.56
2022-08-12T00:50:20.340Z,99799.63
2022-08-12T00:51:45.731Z,99790.84
2022-08-12T00:52:53.552Z,99792.41
2022-08-12T00:53:57.462Z,99793.56
2022-08-12T00:55:05.638Z,99792.84
2022-08-12T00:56:11.021Z,99793.81
2022-08-12T00:57:29.046Z,99800.91
2022-08-12T00:58:35.077Z,99796.38
2022-08-12T00:59:47.479Z,99795.53
2022-08-12T01:00:53.371Z,99791.00
2022-08-12T01:02:11.543Z,99789.16
2022-08-12T01:03:20.716Z,99781.13
2022-08-12T01:04:48.582Z,99784.78
2022-08-12T01:06:14.041Z,99783.06
2022-08-12T01:07:37.978Z,99779.69
2022-08-12T01:09:00.671Z,99765.13
2022-08-12T01:10:27.587Z,99792.41
2022-08-12T01:11:36.604Z,99783.91
2022-08-12T01:12:43.293Z,99787.03
2022-08-12T01:13:50.116Z,99788.44
2022-08-12T01:14:55.264Z,99779.75
2022-08-12T01:16:08.296Z,99782.06
2022-08-12T01:17:13.082Z,99789.38
2022-08-12T01:18:20.940Z,99782.31
2022-08-12T01:19:26.292Z,99782.19
2022-08-12T01:21:12.223Z,99775.13
2022-08-12T01:23:12.356Z,99787.00
2022-08-12T01:24:50.034Z,99779.09
2022-08-12T01:25:57.758Z,99786.44
2022-08-12T01:27:07.682Z,99781.47
2022-08-12T01:28:14.762Z,99788.94
2022-08-12T01:29:34.744Z,99785.38
2022-08-12T01:30:43.032Z,99779.75
2022-08-12T01:31:52.422Z,99785.22
2022-08-12T01:32:59.528Z,99784.38
2022-08-12T01:34:28.623Z,99781.84
2022-08-12T01:35:36.860Z,99782.44
2022-08-12T01:36:50.551Z,99786.06
2022-08-12T01:38:02.864Z,99790.47
2022-08-12T01:39:09.104Z,99779.84
2022-08-12T01:40:35.602Z,99786.94
2022-08-12T01:41:53.724Z,99776.06
2022-08-12T01:43:21.817Z,99794.00
2022-08-12T01:44:29.378Z,99793.41
2022-08-12T01:45:42.946Z,99789.03
2022-08-12T01:47:19.347Z,99791.72
2022-08-12T01:49:00.559Z,99792.31
2022-08-12T01:50:37.204Z,99785.97
2022-08-12T01:52:21.410Z,99794.25
2022-08-12T01:53:13.689Z,99794.25
2022-08-12T01:54:19.773Z,99792.84
2022-08-12T01:55:30.371Z,99788.47
2022-08-12T01:57:13.220Z,99788.19
2022-08-12T01:58:26.696Z,99783.81
2022-08-12T02:00:00.454Z,99788.19
2022-08-12T02:01:13.392Z,99786.66
2022-08-12T02:02:30.845Z,99790.03
2022-08-12T02:03:53.296Z,99776.59
2022-08-12T02:05:44.278Z,99770.09
2022-08-12T02:07:18.884Z,99776.59
2022-08-12T02:08:55.908Z,99765.88
2022-08-12T02:10:50.270Z,99761.63
2022-08-12T02:12:03.068Z,99763.34
2022-08-12T02:13:48.457Z,99774.19
2022-08-12T02:15:50.430Z,99765.03
2022-08-12T02:17:55.119Z,99764.75
2022-08-12T02:19:27.906Z,99762.06
2022-08-12T02:20:52.462Z,99766.44
2022-08-12T02:22:37.324Z,99763.75
2022-08-12T02:23:42.778Z,99763.19
2022-08-12T02:24:50.169Z,99762.59
2022-08-12T02:26:01.636Z,99755.81
2022-08-12T02:27:09.104Z,99757.06
2022-08-12T02:28:13.371Z,99763.13
2022-08-12T02:29:19.484Z,99761.81
2022-08-12T02:30:41.184Z,99762.25
2022-08-12T02:31:48.375Z,99767.31
2022-08-12T02:32:54.631Z,99753.00
2022-08-12T02:34:01.588Z,99763.31
2022-08-12T02:35:15.046Z,99763.59
2022-08-12T02:36:19.330Z,99759.34
2022-08-12T02:37:28.855Z,99756.94
2022-08-12T02:38:34.095Z,99755.09
2022-08-12T02:39:45.483Z,99755.50
2022-08-12T02:40:55.196Z,99755.66
2022-08-12T02:42:06.882Z,99759.31
2022-08-12T02:43:34.970Z,99760.31
2022-08-12T02:44:45.024Z,99757.63
2022-08-12T02:46:15.128Z,99759.44
2022-08-12T02:47:59.672Z,99762.97
2022-08-12T02:49:17.797Z,99761.16
2022-08-12T02:50:29.143Z,99759.31
2022-08-12T02:51:41.784Z,99760.75
2022-08-12T02:52:47.691Z,99749.81
2022-08-12T02:54:05.732Z,99760.63
2022-08-12T02:55:34.268Z,99762.03
2022-08-12T02:56:50.432Z,99760.34
2022-08-12T02:57:57.546Z,99753.97
2022-08-12T02:59:02.329Z,99725.41
2022-08-12T03:00:08.124Z,99761.03
2022-08-12T03:01:14.121Z,99747.47
2022-08-12T03:02:24.019Z,99761.03
2022-08-12T03:03:33.440Z,99757.50
2022-08-12T03:04:45.731Z,99765.44
2022-08-12T03:06:01.839Z,99758.34
2022-08-12T03:07:56.439Z,99757.41
2022-08-12T03:08:59.188Z,99757.13
2022-08-12T03:10:16.170Z,99752.75
2022-08-12T03:11:42.311Z,99760.78
2022-08-12T03:12:57.802Z,99762.34
2022-08-12T03:14:02.997Z,99746.22
2022-08-12T03:15:13.400Z,99752.75
2022-08-12T03:16:18.633Z,99758.25
2022-08-12T03:17:36.726Z,99751.19
2022-08-12T03:18:46.198Z,99751.91
2022-08-12T03:20:10.365Z,99753.72
2022-08-12T03:21:55.334Z,99749.47
2022-08-12T03:22:45.703Z,99753.00
2022-08-12T03:23:49.557Z,99754.81
2022-08-12T03:24:57.637Z,99754.25
2022-08-12T03:26:03.343Z,99757.34
2022-08-12T03:27:11.800Z,99749.28
2022-08-12T03:28:35.712Z,99750.81
2022-08-12T03:29:50.044Z,99757.75
2022-08-12T03:31:01.693Z,99750.81
2022-08-12T03:32:07.712Z,99749.25
2022-08-12T03:33:38.784Z,99746.84
2022-08-12T03:34:45.825Z,99740.63
2022-08-12T03:35:53.398Z,99745.97
2022-08-12T03:37:00.458Z,99745.97
2022-08-12T03:38:09.608Z,99742.44
2022-08-12T03:39:18.893Z,99749.25
2022-08-12T03:40:48.962Z,99743.03
2022-08-12T03:42:28.301Z,99756.78
2022-08-12T03:44:03.352Z,99752.25
2022-08-12T03:45:53.006Z,99749.16
2022-08-12T03:47:43.371Z,99761.59
2022-08-12T03:49:06.359Z,99758.78
2022-08-12T03:50:29.447Z,99763.81
2022-08-12T03:51:51.753Z,99765.53
2022-08-12T03:53:15.761Z,99751.94
2022-08-12T03:54:42.498Z,99769.19
2022-08-12T03:56:05.218Z,99766.66
2022-08-12T03:57:27.712Z,99759.84
2022-08-12T03:58:50.357Z,99763.97
2022-08-12T04:00:13.071Z,99766.22
2022-08-12T04:01:28.492Z,99763.69
2022-08-12T04:02:34.943Z,99773.28
2022-08-12T04:03:55.341Z,99767.22
2022-08-12T04:04:59.350Z,99762.00
2022-08-12T04:06:03.572Z,99767.81
2022-08-12T04:07:10.057Z,99770.75
2022-08-12T04:08:14.850Z,99767.22
2022-08-12T04:09:22.408Z,99764.53
2022-08-12T04:10:50.850Z,99766.22
2022-08-12T04:12:13.425Z,99768.66
2022-08-12T04:13:25.686Z,99760.16
2022-08-12T04:14:29.720Z,99763.81
2022-08-12T04:15:34.195Z,99764.66
2022-08-12T04:16:39.204Z,99765.66
2022-08-12T04:18:06.520Z,99763.81
2022-08-12T04:19:08.468Z,99761.00
2022-08-12T04:20:13.685Z,99772.56
2022-08-12T04:21:17.997Z,99760.88
2022-08-12T04:22:25.484Z,99765.13
2022-08-12T04:23:32.062Z,99765.69
2022-08-12T04:24:36.776Z,99764.72
2022-08-12T04:25:45.203Z,99759.81
2022-08-12T04:26:49.698Z,99765.88
2022-08-12T04:27:55.269Z,99772.69
2022-08-12T04:29:00.556Z,99767.31
2022-08-12T04:30:17.043Z,99769.84
2022-08-12T04:31:37.178Z,99776.66
2022-08-12T04:32:44.416Z,99782.59
2022-08-12T04:33:48.885Z,99775.25
2022-08-12T04:34:53.760Z,99777.66
2022-08-12T04:35:57.636Z,99772.03
2022-08-12T04:37:01.508Z,99774.56
2022-08-12T04:38:06.177Z,99771.63
2022-08-12T04:39:12.647Z,99771.47
2022-08-12T04:40:17.498Z,99776.69
2022-08-12T04:41:33.693Z,99775.59
2022-08-12T04:42:37.778Z,99785.34
2022-08-12T04:44:01.293Z,99778.16
2022-08-12T04:45:07.864Z,99782.13
2022-08-12T04:46:12.541Z,99779.44
2022-08-12T04:47:17.581Z,99784.81
2022-08-12T04:48:21.565Z,99775.31
2022-08-12T04:49:27.171Z,99786.94
2022-08-12T04:50:36.062Z,99780.13
2022-08-12T04:51:41.872Z,99791.63
2022-08-12T04:52:57.568Z,99791.47
2022-08-12T04:54:04.848Z,99784.41
2022-08-12T04:55:10.749Z,99778.19
2022-08-12T04:56:16.748Z,99782.91
2022-08-12T04:57:20.737Z,99787.28
2022-08-12T04:58:29.781Z,99780.94
2022-08-12T04:59:46.733Z,99786.16
2022-08-12T05:00:53.227Z,99780.53
2022-08-12T05:01:57.755Z,99774.00
2022-08-12T05:03:01.867Z,99786.84
2022-08-12T05:04:09.626Z,99782.22
2022-08-12T05:05:24.953Z,99783.22
2022-08-12T05:06:28.971Z,99791.69
2022-08-12T05:07:34.228Z,99787.03
2022-08-12T05:08:50.778Z,99780.53
2022-08-12T05:10:00.824Z,99783.06
2022-08-12T05:11:07.719Z,99784.75
2022-08-12T05:12:12.962Z,99791.41
2022-08-12T05:13:21.128Z,99786.59
2022-08-12T05:14:25.213Z,99790.03
2022-08-12T05:15:29.776Z,99785.34
2022-08-12T05:16:37.426Z,99779.69
2022-08-12T05:17:43.189Z,99775.19
2022-08-12T05:18:47.899Z,99775.16
2022-08-12T05:19:51.982Z,99782.34
2022-08-12T05:20:59.038Z,99785.91
2022-08-12T05:22:03.391Z,99782.09
2022-08-12T05:23:16.289Z,99787.16
2022-08-12T05:24:20.198Z,99789.53
2022-08-12T05:25:24.189Z,99784.28
2022-08-12T05:26:29.753Z,99784.13
2022-08-12T05:27:36.363Z,99786.75
2022-08-12T05:28:41.458Z,99778.63
2022-08-12T05:30:06.982Z,99783.00
2022-08-12T05:31:12.846Z,99783.88
2022-08-12T05:32:20.963Z,99785.00
2022-08-12T05:33:35.931Z,99773.66
2022-08-12T05:34:39.906Z,99783.13
2022-08-12T05:35:47.925Z,99783.94
2022-08-12T05:36:51.726Z,99783.69
2022-08-12T05:38:16.067Z,99778.03
2022-08-12T05:39:19.948Z,99773.59
2022-08-12T05:40:24.731Z,99789.78
2022-08-12T05:41:33.041Z,99790.56
2022-08-12T05:42:37.260Z,99785.06
2022-08-12T05:43:41.053Z,99790.06
2022-08-12T05:44:45.022Z,99793.34
2022-08-12T05:45:52.381Z,99788.13
2022-08-12T05:46:56.303Z,99797.03
2022-08-12T05:48:00.533Z,99797.63
2022-08-12T05:49:06.761Z,99793.63
2022-08-12T05:50:11.482Z,99800.78
2022-08-12T05:51:19.164Z,99795.91
2022-08-12T05:52:23.193Z,99793.09
2022-08-12T05:53:27.186Z,99791.56
2022-08-12T05:54:54.658Z,99790.44
2022-08-12T05:55:55.022Z,99781.84
2022-08-12T05:56:58.813Z,99788.31
2022-08-12T05:58:05.063Z,99786.97
2022-08-12T05:59:11.500Z,99787.84
2022-08-12T06:00:17.634Z,99782.59
2022-08-12T06:02:09.011Z,99789.84
2022-08-12T06:02:49.578Z,99783.91
2022-08-12T06:03:54.390Z,99788.63
2022-08-12T06:05:00.499Z,99785.22
2022-08-12T06:06:07.332Z,99787.84
2022-08-12T06:07:59.175Z,99788.47
2022-08-12T06:08:37.208Z,99791.81
2022-08-12T06:09:40.997Z,99781.31
2022-08-12T06:10:50.359Z,99791.69
2022-08-12T06:12:05.662Z,99785.66
2022-08-12T06:13:11.492Z,99797.25
2022-08-12T06:14:15.840Z,99792.66
2022-08-12T06:15:21.573Z,99797.66
2022-08-12T06:16:26.346Z,99797.88
2022-08-12T06:17:31.415Z,99788.44
2022-08-12T06:18:35.622Z,99793.44
2022-08-12T06:20:27.770Z,99791.50
2022-08-12T06:21:03.687Z,99798.06
2022-08-12T06:22:07.985Z,99790.00
2022-08-12T06:23:12.132Z,99793.72
2022-08-12T06:24:20.213Z,99796.78
2022-08-12T06:25:28.332Z,99795.66
2022-08-12T06:26:34.834Z,99797.72
2022-08-12T06:28:07.915Z,99801.13
2022-08-12T06:30:06.749Z,99798.00
2022-08-12T06:31:08.660Z,99799.59
2022-08-12T06:32:12.867Z,99797.91
2022-08-12T06:33:22.952Z,99796.38
2022-08-12T06:35:24.144Z,99791.84
2022-08-12T06:35:58.719Z,99792.56
2022-08-12T06:37:05.420Z,99793.28
2022-08-12T06:38:19.347Z,99801.91
2022-08-12T06:39:24.447Z,99794.97
2022-08-12T06:40:47.144Z,99803.19
2022-08-12T06:42:42.091Z,99795.88
2022-08-12T06:44:06.629Z,99801.28
2022-08-12T06:44:58.518Z,99794.75
2022-08-12T06:46:05.387Z,99802.81
2022-08-12T06:47:10.285Z,99809.81
2022-08-12T06:48:14.418Z,99805.13
2022-08-12T06:49:19.315Z,99806.72
2022-08-12T06:50:24.418Z,99803.88
2022-08-12T06:51:32.329Z,99805.41
2022-08-12T06:52:36.860Z,99798.28
2022-08-12T06:53:44.032Z,99800.91
2022-08-12T06:54:47.940Z,99793.44
2022-08-12T06:55:57.816Z,99795.94
2022-08-12T06:57:04.845Z,99792.09
2022-08-12T06:58:20.631Z,99792.88
2022-08-12T06:59:24.818Z,99786.94
2022-08-12T07:00:34.498Z,99790.41
2022-08-12T07:01:38.904Z,99787.28
2022-08-12T07:02:43.578Z,99788.53
2022-08-12T07:03:48.652Z,99786.34
2022-08-12T07:04:55.347Z,99788.13
2022-08-12T07:06:10.512Z,99793.53
2022-08-12T07:07:15.475Z,99785.00
2022-08-12T07:08:21.183Z,99779.72
2022-08-12T07:10:03.787Z,99781.56
2022-08-12T07:10:57.542Z,99779.84
2022-08-12T07:12:01.579Z,99774.03
2022-08-12T07:13:05.862Z,99774.59
2022-08-12T07:14:14.264Z,99775.91
2022-08-12T07:15:20.474Z,99786.94
2022-08-12T07:16:46.441Z,99775.09
2022-08-12T07:18:01.126Z,99781.03
2022-08-12T07:19:05.206Z,99783.63
2022-08-12T07:20:29.606Z,99782.34
2022-08-12T07:21:59.875Z,99770.84
2022-08-12T07:23:06.685Z,99780.63
2022-08-12T07:24:11.048Z,99774.75
2022-08-12T07:25:37.376Z,99776.09
2022-08-12T07:26:45.235Z,99788.94
2022-08-12T07:27:55.347Z,99788.56
2022-08-12T07:28:59.239Z,99781.66
2022-08-12T07:30:05.300Z,99783.94
2022-08-12T07:31:17.197Z,99781.22
2022-08-12T07:32:25.962Z,99786.84
2022-08-12T07:33:33.960Z,99786.63
2022-08-12T07:34:37.917Z,99783.44
2022-08-12T07:35:45.741Z,99772.94
2022-08-12T07:36:49.702Z,99784.72
2022-08-12T07:37:54.320Z,99775.25
2022-08-12T07:38:58.038Z,99772.38
2022-08-12T07:40:02.797Z,99777.34
2022-08-12T07:41:22.456Z,99774.13
2022-08-12T07:42:26.865Z,99774.19
2022-08-12T07:43:33.673Z,99774.72
2022-08-12T07:44:37.876Z,99774.53
2022-08-12T07:45:41.836Z,99770.84
2022-08-12T07:46:45.843Z,99773.41
2022-08-12T07:47:52.377Z,99769.31
2022-08-12T07:49:00.326Z,99770.94
2022-08-12T07:50:09.405Z,99763.09
2022-08-12T07:51:25.314Z,99766.84
2022-08-12T07:52:30.654Z,99765.25
2022-08-12T07:53:49.111Z,99768.91
2022-08-12T07:55:01.399Z,99770.94
2022-08-12T07:56:09.867Z,99762.88
2022-08-12T07:57:15.709Z,99758.09
2022-08-12T07:58:19.741Z,99766.34
2022-08-12T07:59:24.304Z,99761.59
2022-08-12T08:00:34.504Z,99762.38
2022-08-12T08:01:39.447Z,99759.50
2022-08-12T08:02:43.397Z,99749.09
2022-08-12T08:04:12.960Z,99761.41
2022-08-12T08:05:19.762Z,99759.09
2022-08-12T08:06:25.074Z,99754.22
2022-08-12T08:07:30.676Z,99754.88
2022-08-12T08:08:35.036Z,99764.50
2022-08-12T08:09:39.524Z,99758.13
2022-08-12T08:10:45.470Z,99771.41
2022-08-12T08:12:08.770Z,99758.59
2022-08-12T08:13:14.086Z,99759.31
2022-08-12T08:14:18.167Z,99758.97
2022-08-12T08:16:03.121Z,99757.72
2022-08-12T08:17:03.736Z,99754.75
2022-08-12T08:18:13.284Z,99766.34
2022-08-12T08:19:24.343Z,99766.81
2022-08-12T08:20:34.212Z,99757.13
2022-08-12T08:21:38.021Z,99764.28
2022-08-12T08:22:42.722Z,99771.38
2022-08-12T08:24:05.567Z,99770.31
2022-08-12T08:25:34.428Z,99775.25
2022-08-12T08:26:35.463Z,99774.19
2022-08-12T08:27:49.775Z,99757.25
2022-08-12T08:28:54.117Z,99765.03
2022-08-12T08:29:58.113Z,99769.56
2022-08-12T08:31:02.435Z,99771.28
2022-08-12T08:32:09.784Z,99768.81
2022-08-12T08:33:24.547Z,99766.69
2022-08-12T08:34:55.084Z,99763.84
2022-08-12T08:36:00.131Z,99765.09
2022-08-12T08:37:07.740Z,99769.56
2022-08-12T08:38:31.880Z,99770.69
2022-08-12T08:39:36.493Z,99772.31
2022-08-12T08:41:03.050Z,99768.38
2022-08-12T08:42:26.145Z,99763.28
2022-08-12T08:43:44.028Z,99757.72
2022-08-12T08:44:58.489Z,99756.09
2022-08-12T08:46:06.023Z,99763.38
2022-08-12T08:47:13.810Z,99760.09
2022-08-12T08:48:18.968Z,99764.53
2022-08-12T08:49:25.904Z,99764.66
2022-08-12T08:50:30.381Z,99763.75
2022-08-12T08:51:35.447Z,99758.97
2022-08-12T08:52:45.557Z,99753.56
2022-08-12T08:53:52.807Z,99771.09
2022-08-12T08:54:56.983Z,99769.22
2022-08-12T08:56:04.932Z,99777.84
2022-08-12T08:57:09.752Z,99770.66
2022-08-12T08:58:13.545Z,99765.94
2022-08-12T08:59:20.300Z,99773.66
2022-08-12T09:00:24.238Z,99770.75
2022-08-12T09:02:58.630Z,99776.38
2022-08-12T09:05:07.959Z,99776.91
2022-08-12T09:06:59.789Z,99786.63
2022-08-12T09:08:14.175Z,99776.19
2022-08-12T09:09:21.695Z,99784.47
2022-08-12T09:10:30.986Z,99786.50
2022-08-12T09:12:10.940Z,99779.06
2022-08-12T09:14:12.336Z,99783.84
2022-08-12T09:15:01.619Z,99778.41
2022-08-12T09:16:21.435Z,99774.88
2022-08-12T09:17:27.088Z,99774.09
2022-08-12T09:18:47.285Z,99775.56
2022-08-12T09:19:57.501Z,99776.66
2022-08-12T09:23:59.454Z,99794.19
2022-08-12T09:25:07.583Z,99781.97
2022-08-12T09:26:11.621Z,99787.63
2022-08-12T09:27:17.666Z,99792.75
2022-08-12T09:30:11.489Z,99788.41
2022-08-12T09:32:07.652Z,99789.81
2022-08-12T09:33:04.281Z,99783.13
2022-08-12T09:34:29.455Z,99793.97
2022-08-12T09:35:42.922Z,99784.03
2022-08-12T09:37:00.118Z,99790.88
2022-08-12T09:38:05.638Z,99789.06
2022-08-12T09:40:01.717Z,99784.72
2022-08-12T09:42:09.646Z,99794.47
2022-08-12T09:42:54.363Z,99783.53
2022-08-12T09:44:39.202Z,99790.50
2022-08-12T09:46:19.570Z,99791.25
2022-08-12T09:47:13.049Z,99784.31
2022-08-12T09:48:22.280Z,99772.78
2022-08-12T09:49:26.384Z,99773.88
2022-08-12T09:50:31.006Z,99782.31
2022-08-12T09:51:38.405Z,99774.78
2022-08-12T09:52:54.354Z,99771.59
2022-08-12T09:54:08.479Z,99771.81
2022-08-12T09:56:07.359Z,99773.50
2022-08-12T09:56:59.208Z,99777.19
2022-08-12T09:58:07.358Z,99774.22
2022-08-12T10:00:17.900Z,99762.00
2022-08-12T10:00:55.388Z,99757.28
2022-08-12T10:02:45.637Z,99761.13
2022-08-12T10:03:32.602Z,99768.47
2022-08-12T10:04:45.716Z,99759.44
2022-08-12T10:06:28.023Z,99762.72
2022-08-12T10:07:24.925Z,99757.03
2022-08-12T10:08:33.197Z,99761.22
2022-08-12T10:09:57.408Z,99750.06
2022-08-12T10:11:24.614Z,99756.94
2022-08-12T10:13:07.167Z,99758.16
2022-08-12T10:14:13.433Z,99745.72
2022-08-12T10:16:02.552Z,99753.72
2022-08-12T10:16:44.496Z,99746.47
2022-08-12T10:18:06.114Z,99758.28
2022-08-12T10:19:17.175Z,99757.19
2022-08-12T10:20:21.649Z,99745.78
2022-08-12T10:21:36.513Z,99757.47
2022-08-12T10:22:41.766Z,99748.00
2022-08-12T10:23:51.531Z,99753.19
2022-08-12T10:25:18.226Z,99747.97
2022-08-12T10:26:41.740Z,99754.44
2022-08-12T10:28:09.046Z,99748.53
2022-08-12T10:30:37.235Z,99747.94
2022-08-12T10:31:01.628Z,99752.53
2022-08-12T10:32:21.987Z,99751.75
2022-08-12T10:33:55.050Z,99744.84
2022-08-12T10:35:05.249Z,99747.28
2022-08-12T10:36:09.265Z,99748.53
2022-08-12T10:38:10.625Z,99744.50
2022-08-12T10:38:41.069Z,99740.09
2022-08-12T10:40:03.199Z,99737.78
2022-08-12T10:41:57.919Z,99736.53
2022-08-12T10:43:12.712Z,99735.06
2022-08-12T10:44:20.947Z,99740.66
2022-08-12T10:45:30.340Z,99728.44
2022-08-12T10:46:35.402Z,99726.47
2022-08-12T10:48:07.287Z,99713.81
2022-08-12T10:49:06.916Z,99715.88
2022-08-12T10:50:33.901Z,99732.47
2022-08-12T10:52:04.006Z,99727.22
2022-08-12T10:53:21.591Z,99732.66
2022-08-12T10:54:51.113Z,99729.19
2022-08-12T10:55:56.469Z,99742.78
2022-08-12T10:57:01.615Z,99722.56
2022-08-12T10:58:15.402Z,99730.06
2022-08-12T11:00:29.769Z,99737.09
2022-08-12T11:04:14.153Z,99711.63
2022-08-12T11:04:22.642Z,99717.75
2022-08-12T11:04:25.444Z,99729.25
2022-08-12T11:07:03.012Z,99719.44
2022-08-12T11:07:09.190Z,99725.50
2022-08-12T11:08:38.923Z,99718.19
2022-08-12T11:09:54.326Z,99706.88
2022-08-12T11:10:55.669Z,99714.06
2022-08-12T11:12:35.434Z,99718.38
2022-08-12T11:13:46.301Z,99711.72
2022-08-12T11:14:53.611Z,99711.28
2022-08-12T11:16:04.014Z,99702.19
2022-08-12T11:17:43.606Z,99713.16
2022-08-12T11:18:46.923Z,99702.19
2022-08-12T11:19:59.422Z,99690.00
2022-08-12T11:21:06.348Z,99693.22
2022-08-12T11:22:12.481Z,99698.06
2022-08-12T11:23:25.633Z,99701.25
2022-08-12T11:24:39.777Z,99702.56
2022-08-12T11:25:57.592Z,99686.53
2022-08-12T11:27:11.019Z,99699.66
2022-08-12T11:28:16.805Z,99702.63
2022-08-12T11:29:24.053Z,99694.94
2022-08-12T11:30:31.635Z,99695.16
2022-08-12T11:31:56.090Z,99686.78
2022-08-12T11:33:00.310Z,99673.59
2022-08-12T11:34:51.907Z,99689.31
2022-08-12T11:35:29.557Z,99689.91
2022-08-12T11:36:33.530Z,99687.81
2022-08-12T11:37:58.839Z,99686.31
2022-08-12T11:39:05.386Z,99684.38
2022-08-12T11:40:10.239Z,99681.75
2022-08-12T11:41:15.810Z,99689.63
2022-08-12T11:42:19.787Z,99689.22
2022-08-12T11:43:50.499Z,99692.97
2022-08-12T11:45:00.276Z,99673.53
2022-08-12T11:46:04.343Z,99672.47
2022-08-12T11:47:09.667Z,99683.44
2022-08-12T11:48:15.320Z,99664.06
2022-08-12T11:49:30.492Z,99680.03
2022-08-12T11:50:35.895Z,99681.16
2022-08-12T11:51:45.970Z,99658.91
2022-08-12T11:53:01.749Z,99680.59
2022-08-12T11:54:07.371Z,99683.75
2022-08-12T11:55:23.262Z,99680.59
2022-08-12T11:56:38.186Z,99654.19
2022-08-12T11:58:40.575Z,99678.13
2022-08-12T12:02:10.368Z,99664.38
2022-08-12T12:03:17.323Z,99684.09
2022-08-12T12:04:25.890Z,99682.78
2022-08-12T12:05:41.659Z,99674.41
2022-08-12T12:06:46.093Z,99661.38
2022-08-12T12:08:38.613Z,99671.09
2022-08-12T12:09:21.191Z,99670.53
2022-08-12T12:10:26.851Z,99672.00
2022-08-12T12:11:48.940Z,99670.97
2022-08-12T12:12:53.713Z,99672.09
2022-08-12T12:14:07.414Z,99677.16
2022-08-12T12:15:15.178Z,99675.53
2022-08-12T12:16:29.966Z,99662.41
2022-08-12T12:17:40.594Z,99670.16
2022-08-12T12:18:45.555Z,99671.66
2022-08-12T12:19:49.372Z,99676.06
2022-08-12T12:20:58.550Z,99672.31
2022-08-12T12:22:02.439Z,99664.72
2022-08-12T12:23:06.735Z,99659.69
2022-08-12T12:24:31.258Z,99668.47
2022-08-12T12:26:06.711Z,99669.78
2022-08-12T12:26:59.601Z,99630.69
2022-08-12T12:28:06.111Z,99663.81
2022-08-12T12:30:18.439Z,99646.22
2022-08-12T12:30:36.125Z,99666.34
2022-08-12T12:32:11.904Z,99660.72
2022-08-12T12:33:07.542Z,99671.34
2022-08-12T12:34:30.225Z,99644.34
2022-08-12T12:36:18.660Z,99655.47
2022-08-12T12:37:00.866Z,99639.13
2022-08-12T12:38:12.041Z,99647.13
2022-08-12T12:39:16.545Z,99644.00
2022-08-12T12:40:29.843Z,99642.75
2022-08-12T12:42:42.073Z,99643.22
2022-08-12T12:43:05.180Z,99631.94
2022-08-12T12:44:13.263Z,99619.53
2022-08-12T12:45:33.435Z,99638.06
2022-08-12T12:46:37.979Z,99633.47
2022-08-12T12:47:57.565Z,99630.94
2022-08-12T12:49:01.569Z,99632.22
2022-08-12T12:50:35.538Z,99625.09
2022-08-12T12:51:56.448Z,99628.44
2022-08-12T12:53:04.621Z,99624.06
2022-08-12T12:54:10.712Z,99620.09
2022-08-12T12:55:16.880Z,99619.44
2022-08-12T12:56:34.231Z,99614.22
2022-08-12T12:58:00.255Z,99603.91
2022-08-12T12:59:06.223Z,99615.53
2022-08-12T13:00:17.814Z,99608.38
2022-08-12T13:01:31.821Z,99609.22
2022-08-12T13:02:40.584Z,99605.00
2022-08-12T13:03:49.060Z,99615.75
2022-08-12T13:04:54.033Z,99625.59
2022-08-12T13:06:00.822Z,99602.28
2022-08-12T13:07:05.902Z,99620.75
2022-08-12T13:08:27.998Z,99611.56
2022-08-12T13:09:36.219Z,99613.03
2022-08-12T13:10:51.039Z,99616.78
2022-08-12T13:11:55.428Z,99606.31
2022-08-12T13:14:07.632Z,99601.66
2022-08-12T13:14:28.185Z,99608.84
2022-08-12T13:15:45.497Z,99602.28
2022-08-12T13:16:52.619Z,99583.97
2022-08-12T13:18:05.807Z,99601.25
2022-08-12T13:19:10.131Z,99612.81
2022-08-12T13:20:38.161Z,99610.91
2022-08-12T13:22:00.741Z,99606.13
2022-08-12T13:23:37.338Z,99600.47
2022-08-12T13:24:31.684Z,99600.47
2022-08-12T13:25:36.721Z,99595.03
2022-08-12T13:26:41.293Z,99599.63
2022-08-12T13:27:48.588Z,99591.88
2022-08-12T13:28:55.892Z,99589.59
2022-08-12T13:30:03.859Z,99582.88
2022-08-12T13:31:08.850Z,99589.84
2022-08-12T13:32:19.795Z,99594.25
2022-08-12T13:34:32.909Z,99591.78
2022-08-12T13:35:04.738Z,99581.28
2022-08-12T13:36:23.645Z,99591.38
2022-08-12T13:37:28.285Z,99586.72
2022-08-12T13:38:54.467Z,99584.88
2022-08-12T13:39:58.750Z,99592.00
2022-08-12T13:41:04.252Z,99593.03
2022-08-12T13:42:17.048Z,99594.72
2022-08-12T13:43:40.921Z,99591.63
2022-08-12T13:44:46.180Z,99595.81
2022-08-12T13:45:51.692Z,99591.81
2022-08-12T13:46:58.990Z,99584.28
2022-08-12T13:48:06.947Z,99587.66
2022-08-12T13:49:17.308Z,99589.53
2022-08-12T13:50:43.413Z,99593.56
2022-08-12T13:51:53.152Z,99589.13
2022-08-12T13:53:06.093Z,99581.84
2022-08-12T13:54:10.495Z,99588.56
2022-08-12T13:55:21.960Z,99589.19
2022-08-12T13:56:35.576Z,99584.41
2022-08-12T13:57:44.812Z,99587.78
2022-08-12T13:58:52.671Z,99574.50
2022-08-12T14:00:00.822Z,99576.38
2022-08-12T14:01:08.920Z,99587.31
2022-08-12T14:02:14.053Z,99589.66
2022-08-12T14:03:28.290Z,99580.00
2022-08-12T14:04:32.658Z,99576.88
2022-08-12T14:05:38.973Z,99577.50
2022-08-12T14:06:44.810Z,99569.22
2022-08-12T14:08:06.261Z,99580.66
2022-08-12T14:09:17.957Z,99578.13
2022-08-12T14:10:50.534Z,99577.28
2022-08-12T14:11:58.603Z,99566.34
2022-08-12T14:13:16.974Z,99579.81
2022-08-12T14:14:37.584Z,99574.78
2022-08-12T14:15:57.935Z,99580.25
2022-08-12T14:17:05.601Z,99555.06
2022-08-12T14:18:24.253Z,99576.09
2022-08-12T14:19:32.917Z,99578.81
2022-08-12T14:20:41.806Z,99571.88
2022-08-12T14:22:01.386Z,99579.03
2022-08-12T14:24:00.917Z,99547.34
2022-08-12T14:24:40.263Z,99568.75
2022-08-12T14:25:45.423Z,99558.72
2022-08-12T14:26:50.567Z,99558.03
2022-08-12T14:28:06.744Z,99563.06
2022-08-12T14:29:10.917Z,99545.47
2022-08-12T14:30:35.389Z,99554.94
2022-08-12T14:31:40.806Z,99529.25
2022-08-12T14:32:47.161Z,99560.38
2022-08-12T14:33:52.957Z,99558.25
2022-08-12T14:34:58.459Z,99548.88
2022-08-12T14:36:06.916Z,99536.06
2022-08-12T14:37:14.755Z,99556.41